Time;durP1;ratioP1;P1;durP2;ratioP2;P2;SDS_P1;SDS_P2;PMS_P1;PMS_P2;Temp;Humidity;BMP_temperature;BMP_pressure;BME280_temperature;BME280_humidity;BME280_pressure;Samples;Min_cycle;Max_cycle;Signal;HPM_P1;HPM_P2
2022/01/13 00:01:43;;;;;;;40.72;19.50;;;3.10;97.30;;;;;;5072415;28;20096;-75
2022/01/13 00:04:13;;;;;;;36.85;18.92;;;3.10;97.30;;;;;;5087575;28;20151;-75
2022/01/13 00:06:40;;;;;;;37.00;18.20;;;3.10;97.50;;;;;;5072143;28;20465;-75
2022/01/13 00:09:06;;;;;;;39.80;18.60;;;3.10;97.40;;;;;;5080990;28;20430;-75
2022/01/13 00:11:32;;;;;;;36.75;18.15;;;3.10;97.20;;;;;;5112900;28;20024;-75
2022/01/13 00:19:20;;;;;;;30.60;16.65;;;3.10;97.20;;;;;;5113089;28;20020;-75
2022/01/13 00:22:00;;;;;;;37.03;17.55;;;3.00;97.10;;;;;;5110818;28;20024;-75
2022/01/13 00:24:25;;;;;;;35.42;17.83;;;3.10;97.00;;;;;;5112163;28;20072;-75
2022/01/13 00:26:53;;;;;;;37.03;17.30;;;3.10;96.70;;;;;;5112657;28;20035;-75
2022/01/13 00:29:26;;;;;;;34.65;17.23;;;3.20;96.60;;;;;;5112365;28;20708;-75
2022/01/13 00:31:51;;;;;;;42.85;18.52;;;3.20;96.40;;;;;;5112419;28;20046;-75
2022/01/13 00:34:17;;;;;;;34.85;17.27;;;3.30;96.30;;;;;;5112690;28;20528;-75
2022/01/13 00:36:43;;;;;;;32.28;17.05;;;3.30;96.60;;;;;;5111060;28;20103;-75
2022/01/13 00:39:11;;;;;;;36.78;18.55;;;3.20;96.50;;;;;;5110396;28;20019;-75
2022/01/13 00:41:38;;;;;;;36.08;18.35;;;3.20;96.80;;;;;;5112334;28;20020;-75
2022/01/13 00:44:06;;;;;;;38.15;19.17;;;3.20;97.00;;;;;;5112333;28;20487;-75
2022/01/13 00:46:42;;;;;;;41.90;19.88;;;3.20;97.00;;;;;;5112428;28;20039;-75
2022/01/13 00:49:09;;;;;;;40.42;20.35;;;3.10;97.60;;;;;;5112316;28;20023;-76
2022/01/13 00:51:34;;;;;;;40.45;21.02;;;3.00;97.60;;;;;;5112357;28;20031;-75
2022/01/13 00:54:05;;;;;;;37.50;19.20;;;3.00;97.70;;;;;;5111119;28;20015;-75
2022/01/13 00:56:32;;;;;;;46.15;20.30;;;2.90;97.70;;;;;;5110776;28;20081;-76
2022/01/13 00:59:03;;;;;;;45.30;21.20;;;2.90;97.70;;;;;;5112130;28;20115;-75
2022/01/13 01:01:29;;;;;;;40.25;21.23;;;2.90;97.80;;;;;;5110790;28;20019;-76
2022/01/13 01:03:55;;;;;;;43.08;20.17;;;2.90;97.80;;;;;;5112211;28;20026;-75
2022/01/13 01:06:21;;;;;;;47.90;20.33;;;2.90;97.90;;;;;;5112056;28;20035;-75
2022/01/13 01:08:46;;;;;;;43.00;20.35;;;2.80;98.00;;;;;;5112719;28;20027;-74
2022/01/13 01:11:12;;;;;;;46.88;19.13;;;2.80;98.00;;;;;;5115681;28;20098;-76
2022/01/13 01:13:39;;;;;;;46.30;21.48;;;2.80;97.90;;;;;;5115733;28;20020;-75
2022/01/13 01:16:08;;;;;;;44.63;20.90;;;2.80;97.80;;;;;;5106845;28;20028;-74
2022/01/13 01:29:14;;;;;;;40.22;20.58;;;2.90;97.70;;;;;;5094795;28;20016;-75
2022/01/13 01:31:46;;;;;;;45.30;20.42;;;2.90;97.30;;;;;;5093109;28;20114;-76
2022/01/13 01:36:56;;;;;;;45.35;18.25;;;3.00;97.20;;;;;;5077817;28;20062;-75
2022/01/13 01:39:23;;;;;;;41.33;19.73;;;3.00;97.00;;;;;;5095057;28;20024;-76
2022/01/13 01:41:51;;;;;;;40.83;19.45;;;3.00;97.10;;;;;;5095143;28;20016;-75
2022/01/13 01:44:39;;;;;;;43.20;19.90;;;3.00;97.10;;;;;;5094849;28;20067;-75
2022/01/13 01:47:08;;;;;;;35.22;18.45;;;3.00;97.20;;;;;;5094588;28;20044;-75
2022/01/13 01:49:39;;;;;;;38.88;19.75;;;3.00;97.00;;;;;;5094625;28;20016;-75
2022/01/13 01:52:06;;;;;;;37.20;20.00;;;3.00;97.00;;;;;;5096240;28;20039;-76
2022/01/13 01:54:32;;;;;;;35.05;18.85;;;3.00;96.90;;;;;;5094807;28;20024;-75
2022/01/13 01:56:58;;;;;;;38.22;18.77;;;3.00;97.30;;;;;;5093468;28;20020;-75
2022/01/13 01:59:28;;;;;;;38.42;18.48;;;3.00;97.10;;;;;;5093334;28;20035;-76
2022/01/13 02:01:54;;;;;;;42.25;20.27;;;3.00;96.90;;;;;;5092962;28;20519;-75
2022/01/13 02:04:22;;;;;;;39.60;18.63;;;3.00;97.00;;;;;;5094303;28;20020;-75
2022/01/13 02:06:48;;;;;;;39.85;19.30;;;3.00;96.70;;;;;;5092744;28;20507;-76
2022/01/13 02:09:17;;;;;;;45.30;18.45;;;3.00;96.70;;;;;;5093805;28;20031;-75
2022/01/13 02:11:50;;;;;;;37.50;19.63;;;3.10;96.40;;;;;;5093862;28;20065;-75
2022/01/13 02:16:55;;;;;;;35.90;17.48;;;3.10;96.20;;;;;;5094155;28;20380;-74
2022/01/13 02:19:24;;;;;;;37.67;18.20;;;3.10;96.20;;;;;;5092899;28;20027;-75
2022/01/13 02:21:50;;;;;;;36.67;17.95;;;3.20;96.10;;;;;;5094036;28;20023;-75
2022/01/13 02:24:16;;;;;;;42.40;17.88;;;3.20;96.00;;;;;;5094199;28;20019;-75
2022/01/13 02:26:42;;;;;;;37.55;18.15;;;3.20;96.00;;;;;;5093766;28;20199;-74
2022/01/13 02:29:07;;;;;;;39.30;18.83;;;3.20;95.90;;;;;;5093470;28;20468;-75
2022/01/13 02:31:33;;;;;;;35.00;18.27;;;3.20;95.90;;;;;;5093713;28;20038;-75
2022/01/13 02:33:59;;;;;;;33.42;17.35;;;3.20;95.70;;;;;;5093423;28;20020;-74
2022/01/13 02:36:27;;;;;;;39.28;17.48;;;3.30;95.40;;;;;;5093414;28;20081;-75
2022/01/13 02:38:54;;;;;;;35.95;17.45;;;3.30;95.40;;;;;;5092195;28;20020;-75
2022/01/13 02:41:24;;;;;;;39.22;18.73;;;3.30;95.30;;;;;;5093440;28;20536;-75
2022/01/13 02:43:55;;;;;;;34.92;17.73;;;3.30;95.50;;;;;;5093060;28;20024;-74
2022/01/13 02:49:16;;;;;;;36.40;17.30;;;3.40;94.90;;;;;;5061759;28;20109;-75
2022/01/13 02:51:44;;;;;;;41.90;17.63;;;3.40;94.80;;;;;;5093305;28;20487;-74
2022/01/13 02:54:10;;;;;;;37.47;16.30;;;3.40;94.90;;;;;;5092953;28;20028;-75
2022/01/13 02:56:37;;;;;;;36.78;17.08;;;3.40;94.60;;;;;;5092950;28;20985;-75
2022/01/13 02:59:04;;;;;;;29.40;15.75;;;3.40;94.60;;;;;;5092936;28;20031;-75
2022/01/13 03:01:30;;;;;;;31.92;17.00;;;3.40;94.50;;;;;;5093418;28;20074;-75
2022/01/13 03:03:56;;;;;;;35.00;17.38;;;3.40;94.50;;;;;;5092124;28;20032;-75
2022/01/13 03:06:31;;;;;;;36.22;16.08;;;3.40;94.60;;;;;;5093063;28;20092;-75
2022/01/13 03:08:58;;;;;;;37.05;17.08;;;3.40;94.40;;;;;;5092689;28;20032;-75
2022/01/13 03:11:30;;;;;;;33.67;15.98;;;3.40;94.40;;;;;;5092695;28;20036;-75
2022/01/13 03:13:56;;;;;;;32.53;16.52;;;3.40;94.50;;;;;;5091942;28;20023;-75
2022/01/13 03:16:22;;;;;;;29.40;15.25;;;3.40;94.80;;;;;;5092722;28;20020;-74
2022/01/13 03:18:48;;;;;;;35.10;17.10;;;3.40;94.00;;;;;;5092251;28;20375;-76
2022/01/13 03:21:14;;;;;;;30.60;16.30;;;3.50;94.20;;;;;;5092645;28;20482;-75
2022/01/13 03:23:40;;;;;;;35.30;16.00;;;3.40;94.10;;;;;;5092725;28;20034;-75
2022/01/13 03:26:06;;;;;;;25.63;14.23;;;3.40;94.20;;;;;;5092998;28;20081;-75
2022/01/13 03:28:38;;;;;;;32.45;15.68;;;3.50;94.00;;;;;;5092621;28;20099;-76
2022/01/13 03:31:06;;;;;;;35.95;15.32;;;3.50;93.60;;;;;;5092600;28;20024;-75
2022/01/13 03:33:32;;;;;;;27.85;15.27;;;3.50;93.60;;;;;;5092755;28;20029;-75
2022/01/13 03:35:58;;;;;;;27.10;15.38;;;3.60;93.60;;;;;;5092787;28;20031;-75
2022/01/13 03:38:25;;;;;;;29.05;14.85;;;3.60;93.50;;;;;;5092809;28;20023;-75
2022/01/13 03:40:51;;;;;;;26.77;14.43;;;3.60;93.30;;;;;;5092717;28;20028;-75
2022/01/13 03:43:18;;;;;;;32.60;15.70;;;3.60;93.30;;;;;;5092297;28;20017;-75
2022/01/13 03:45:45;;;;;;;28.95;13.88;;;3.60;93.10;;;;;;5092041;28;20373;-75
2022/01/13 03:48:13;;;;;;;30.42;13.95;;;3.70;92.70;;;;;;5092737;28;20451;-75
2022/01/13 03:50:40;;;;;;;30.42;15.32;;;3.70;92.50;;;;;;5092646;28;20519;-75
2022/01/13 03:53:27;;;;;;;30.10;14.52;;;3.80;92.50;;;;;;5092515;28;20031;-76
2022/01/13 03:56:47;;;;;;;26.20;13.07;;;3.80;92.50;;;;;;5092387;28;20107;-75
2022/01/13 03:59:27;;;;;;;30.75;14.15;;;3.70;92.40;;;;;;5091172;28;20111;-75
2022/01/13 04:02:11;;;;;;;31.60;15.07;;;3.70;92.40;;;;;;5092468;28;20016;-76
2022/01/13 04:04:40;;;;;;;26.90;13.80;;;3.70;92.40;;;;;;5092607;28;20047;-75
2022/01/13 04:07:19;;;;;;;25.88;13.07;;;3.70;92.40;;;;;;5092357;28;20102;-75
2022/01/13 04:09:44;;;;;;;27.90;14.07;;;3.70;92.40;;;;;;5090628;28;20461;-75
2022/01/13 04:12:13;;;;;;;28.63;14.15;;;3.70;92.30;;;;;;5092310;28;20030;-75
2022/01/13 04:17:09;;;;;;;28.55;14.32;;;3.70;92.50;;;;;;5092340;28;20027;-75
2022/01/13 04:19:35;;;;;;;26.20;14.15;;;3.70;92.50;;;;;;5092131;28;20400;-75
2022/01/13 04:22:03;;;;;;;31.38;14.43;;;3.70;92.60;;;;;;5092456;28;20027;-75
2022/01/13 04:24:28;;;;;;;28.52;15.40;;;3.60;92.60;;;;;;5090807;28;20522;-75
2022/01/13 04:26:56;;;;;;;27.70;14.50;;;3.60;92.80;;;;;;5092318;28;20040;-75
2022/01/13 04:29:31;;;;;;;27.80;14.50;;;3.60;92.70;;;;;;5092469;28;20012;-76
2022/01/13 04:31:57;;;;;;;29.58;13.40;;;3.60;92.60;;;;;;5092278;28;20490;-75
2022/01/13 04:34:23;;;;;;;31.65;14.13;;;3.60;92.60;;;;;;5092065;28;20091;-75
2022/01/13 04:36:49;;;;;;;27.55;14.30;;;3.60;92.60;;;;;;5090851;28;20337;-75
2022/01/13 04:39:16;;;;;;;28.50;14.50;;;3.60;92.40;;;;;;5092100;28;20035;-75
2022/01/13 04:41:45;;;;;;;25.33;13.02;;;3.70;92.30;;;;;;5091870;28;20032;-75
2022/01/13 04:44:14;;;;;;;26.20;14.15;;;3.70;92.20;;;;;;5092442;28;20036;-75
2022/01/13 04:46:40;;;;;;;31.90;14.75;;;3.70;92.30;;;;;;5095538;28;20040;-76
2022/01/13 04:49:07;;;;;;;27.85;14.30;;;3.70;92.30;;;;;;5095704;28;20099;-75
2022/01/13 04:51:34;;;;;;;24.50;13.70;;;3.60;92.40;;;;;;5095271;28;20020;-76
2022/01/13 04:53:59;;;;;;;27.58;13.73;;;3.70;92.30;;;;;;5095965;28;20020;-74
2022/01/13 04:56:39;;;;;;;24.85;13.60;;;3.70;92.30;;;;;;5095983;28;20028;-75
2022/01/13 04:59:06;;;;;;;30.27;14.20;;;3.70;92.10;;;;;;5095495;28;20099;-75
2022/01/13 05:01:32;;;;;;;24.42;12.73;;;3.70;92.10;;;;;;5095646;28;20035;-75
2022/01/13 05:03:57;;;;;;;27.90;13.75;;;3.70;92.20;;;;;;5095087;28;20023;-75
2022/01/13 05:06:23;;;;;;;31.33;15.25;;;3.70;92.30;;;;;;5095077;28;20055;-75
2022/01/13 05:08:49;;;;;;;28.52;14.35;;;3.70;92.40;;;;;;5095276;28;20022;-74
2022/01/13 05:11:16;;;;;;;23.40;12.93;;;3.70;92.40;;;;;;5095034;28;20036;-76
2022/01/13 05:13:42;;;;;;;28.63;13.70;;;3.70;92.40;;;;;;5094145;28;20028;-75
2022/01/13 05:16:16;;;;;;;27.33;14.02;;;3.70;92.20;;;;;;5095378;28;20418;-75
2022/01/13 05:18:56;;;;;;;32.00;12.82;;;3.80;92.20;;;;;;5093665;28;20028;-76
2022/01/13 05:21:37;;;;;;;26.67;12.13;;;3.80;92.00;;;;;;5095042;28;20034;-75
2022/01/13 05:24:03;;;;;;;24.10;11.45;;;3.80;92.00;;;;;;5094895;28;20043;-76
2022/01/13 05:26:29;;;;;;;24.48;11.80;;;3.90;91.90;;;;;;5094856;28;20472;-76
2022/01/13 05:28:55;;;;;;;27.10;12.07;;;3.90;91.80;;;;;;5095072;28;20020;-75
2022/01/13 05:31:20;;;;;;;19.27;10.70;;;3.90;91.60;;;;;;5095169;28;20051;-75
2022/01/13 05:33:46;;;;;;;22.77;12.07;;;4.00;91.40;;;;;;5094970;28;20016;-75
2022/01/13 05:36:13;;;;;;;24.52;12.55;;;4.10;91.30;;;;;;5093699;28;20057;-75
2022/01/13 05:38:42;;;;;;;22.73;10.57;;;4.20;91.10;;;;;;5093114;28;20024;-75
2022/01/13 05:41:08;;;;;;;24.98;12.20;;;4.20;91.10;;;;;;5094272;28;20012;-75
2022/01/13 05:43:33;;;;;;;20.33;11.20;;;4.20;91.00;;;;;;5093765;28;20020;-75
2022/01/13 05:45:59;;;;;;;23.10;11.82;;;4.20;91.00;;;;;;5093932;28;20047;-75
2022/01/13 05:48:25;;;;;;;23.05;11.52;;;4.20;91.10;;;;;;5094673;28;20024;-76
2022/01/13 05:50:51;;;;;;;22.00;10.90;;;4.20;91.10;;;;;;5087898;28;20025;-75
2022/01/13 05:53:17;;;;;;;23.98;11.43;;;4.30;91.00;;;;;;5073013;28;20571;-75
2022/01/13 05:55:43;;;;;;;25.02;11.43;;;4.30;90.90;;;;;;5073762;28;20024;-74
2022/01/13 05:58:09;;;;;;;24.42;12.02;;;4.30;90.90;;;;;;5074678;28;20021;-75
2022/01/13 06:00:35;;;;;;;23.27;11.98;;;4.20;91.10;;;;;;5074366;28;20020;-75
2022/01/13 06:03:04;;;;;;;24.88;11.40;;;4.20;91.00;;;;;;5074415;28;20048;-75
2022/01/13 06:05:30;;;;;;;20.42;11.43;;;4.20;91.00;;;;;;5076132;28;20051;-75
2022/01/13 06:07:56;;;;;;;24.63;11.10;;;4.20;90.60;;;;;;5073485;28;20110;-76
2022/01/13 06:10:22;;;;;;;24.13;12.02;;;4.30;90.50;;;;;;5073303;28;20037;-77
2022/01/13 06:12:50;;;;;;;20.42;10.68;;;4.30;90.50;;;;;;5073990;28;20495;-75
2022/01/13 06:15:18;;;;;;;26.63;11.25;;;4.40;90.10;;;;;;5088263;28;20495;-74
2022/01/13 06:17:46;;;;;;;23.13;10.10;;;4.40;90.20;;;;;;5093967;28;20028;-75
2022/01/13 06:20:13;;;;;;;17.98;9.30;;;4.50;89.30;;;;;;5093115;28;20028;-75
2022/01/13 06:22:40;;;;;;;20.40;9.98;;;4.60;89.20;;;;;;5073453;28;20024;-76
2022/01/13 06:25:07;;;;;;;17.67;9.15;;;4.70;89.20;;;;;;5073164;28;20040;-76
2022/01/13 06:27:33;;;;;;;17.08;8.43;;;4.70;88.40;;;;;;5073387;28;20028;-75
2022/01/13 06:29:59;;;;;;;19.92;9.43;;;4.80;87.60;;;;;;5073433;28;20025;-76
2022/01/13 06:32:25;;;;;;;18.70;9.90;;;4.90;88.00;;;;;;5073080;28;20071;-76
2022/01/13 06:34:51;;;;;;;21.05;11.23;;;4.80;88.30;;;;;;5072840;28;20025;-75
2022/01/13 06:37:18;;;;;;;26.48;12.55;;;4.70;89.40;;;;;;5073030;28;20055;-75
2022/01/13 06:39:44;;;;;;;23.60;10.68;;;4.60;90.20;;;;;;5072893;28;20099;-74
2022/01/13 06:42:10;;;;;;;25.38;11.32;;;4.40;90.30;;;;;;5074202;28;20055;-75
2022/01/13 06:44:36;;;;;;;20.50;10.77;;;4.40;90.10;;;;;;5073239;28;20571;-76
2022/01/13 06:47:03;;;;;;;19.70;10.63;;;4.40;90.10;;;;;;5072816;28;20123;-75
2022/01/13 06:49:29;;;;;;;20.75;10.68;;;4.40;90.10;;;;;;5072922;28;20025;-75
2022/01/13 06:51:54;;;;;;;25.50;9.88;;;4.50;90.00;;;;;;5072098;28;20560;-74
2022/01/13 06:54:20;;;;;;;22.92;10.30;;;4.50;90.00;;;;;;5072738;28;20017;-75
2022/01/13 06:56:46;;;;;;;19.20;10.02;;;4.50;90.00;;;;;;5072073;28;20388;-75
2022/01/13 06:59:13;;;;;;;24.08;9.98;;;4.50;90.00;;;;;;5071963;28;20024;-75
2022/01/13 07:01:40;;;;;;;22.52;10.65;;;4.50;89.50;;;;;;5072650;28;20028;-76
2022/01/13 07:04:10;;;;;;;18.23;10.02;;;4.60;89.60;;;;;;5075172;28;20063;-75
2022/01/13 07:06:37;;;;;;;18.80;9.88;;;4.60;89.50;;;;;;5071566;28;20040;-75
2022/01/13 07:09:07;;;;;;;20.33;10.50;;;4.70;89.60;;;;;;5072428;28;20025;-75
2022/01/13 07:11:34;;;;;;;16.90;9.63;;;4.70;89.50;;;;;;5072490;28;20103;-75
2022/01/13 07:14:00;;;;;;;22.23;9.32;;;4.90;88.90;;;;;;5073060;28;20441;-75
2022/01/13 07:16:26;;;;;;;21.75;9.45;;;5.20;89.00;;;;;;5073190;28;20662;-76
2022/01/13 07:18:52;;;;;;;17.00;8.40;;;5.40;87.70;;;;;;5072377;28;20029;-75
2022/01/13 07:21:20;;;;;;;17.75;8.73;;;5.60;86.70;;;;;;5070940;28;20032;-75
2022/01/13 07:23:46;;;;;;;16.45;9.00;;;5.70;86.60;;;;;;5072217;28;20473;-75
2022/01/13 07:26:12;;;;;;;20.48;8.40;;;5.90;86.00;;;;;;5071838;28;20040;-75
2022/01/13 07:28:38;;;;;;;17.10;8.30;;;6.00;85.30;;;;;;5072434;28;20048;-75
2022/01/13 07:31:04;;;;;;;18.10;7.97;;;6.20;84.90;;;;;;5071483;28;20086;-75
2022/01/13 07:33:30;;;;;;;17.98;8.65;;;6.30;84.70;;;;;;5072846;28;20021;-76
2022/01/13 07:35:56;;;;;;;15.40;8.40;;;6.50;84.40;;;;;;5072423;28;20043;-76
2022/01/13 07:38:21;;;;;;;20.08;8.90;;;6.60;83.70;;;;;;5071740;28;20086;-75
2022/01/13 07:40:48;;;;;;;14.75;8.95;;;6.70;84.50;;;;;;5070433;28;20060;-75
2022/01/13 07:43:21;;;;;;;17.48;9.55;;;6.70;84.00;;;;;;5072314;28;20476;-75
2022/01/13 07:45:47;;;;;;;22.75;9.80;;;6.70;84.00;;;;;;5072377;28;20528;-75
2022/01/13 07:48:13;;;;;;;17.85;8.50;;;6.90;83.70;;;;;;5072848;28;20412;-75
2022/01/13 07:50:39;;;;;;;22.23;9.00;;;7.00;83.80;;;;;;5072467;28;20016;-75
2022/01/13 07:53:04;;;;;;;16.95;8.98;;;7.10;83.40;;;;;;5072685;28;20021;-73
2022/01/13 07:55:30;;;;;;;20.65;9.50;;;7.20;83.10;;;;;;5073069;28;20031;-75
2022/01/13 07:57:56;;;;;;;13.20;8.05;;;7.40;83.50;;;;;;5072188;28;20107;-75
2022/01/13 08:00:21;;;;;;;15.35;8.23;;;7.60;83.10;;;;;;5072230;28;20381;-76
2022/01/13 08:02:47;;;;;;;15.25;7.90;;;7.80;82.60;;;;;;5072595;28;20024;-75
2022/01/13 08:05:13;;;;;;;17.48;8.48;;;7.90;82.30;;;;;;5079140;28;20358;-75
2022/01/13 08:07:39;;;;;;;18.50;9.02;;;8.00;82.10;;;;;;5072440;28;20031;-76
2022/01/13 08:10:05;;;;;;;19.17;9.23;;;8.20;82.10;;;;;;5072069;28;20074;-76
2022/01/13 08:12:31;;;;;;;15.98;9.32;;;8.30;81.70;;;;;;5072011;28;20031;-76
2022/01/13 08:14:56;;;;;;;14.27;8.57;;;8.30;81.80;;;;;;5072271;28;20035;-75
2022/01/13 08:20:08;;;;;;;15.77;8.48;;;8.60;81.50;;;;;;5075852;28;20074;-76
2022/01/13 08:22:34;;;;;;;13.55;7.32;;;8.60;80.80;;;;;;5094123;28;20420;-75
2022/01/13 08:25:00;;;;;;;17.10;8.88;;;8.60;81.10;;;;;;5096564;28;20081;-75
2022/01/13 08:27:25;;;;;;;13.38;7.78;;;8.60;81.40;;;;;;5095908;28;20027;-76
2022/01/13 08:29:51;;;;;;;12.32;7.18;;;8.70;81.60;;;;;;5096033;28;20032;-76
2022/01/13 08:32:18;;;;;;;18.30;8.52;;;8.90;80.70;;;;;;5096141;28;20039;-76
2022/01/13 08:34:45;;;;;;;18.50;8.02;;;9.00;80.80;;;;;;5095299;28;20016;-76
2022/01/13 08:37:11;;;;;;;12.88;7.50;;;9.10;80.90;;;;;;5095140;28;20384;-76
2022/01/13 08:39:43;;;;;;;18.45;8.02;;;9.20;80.60;;;;;;5094257;28;20024;-76
2022/01/13 08:42:09;;;;;;;15.70;8.13;;;9.30;81.40;;;;;;5095466;28;20020;-76
2022/01/13 08:44:35;;;;;;;15.88;8.30;;;9.70;80.80;;;;;;5095816;28;20121;-76
2022/01/13 08:47:00;;;;;;;14.55;7.75;;;9.90;80.30;;;;;;5095633;28;20490;-76
2022/01/13 08:49:26;;;;;;;17.35;7.00;;;10.20;80.10;;;;;;5094812;28;20153;-76
2022/01/13 08:51:54;;;;;;;20.55;7.90;;;10.70;79.10;;;;;;5096095;28;20475;-75
2022/01/13 08:54:21;;;;;;;16.55;7.93;;;10.80;79.00;;;;;;5095544;28;20103;-76
2022/01/13 08:56:47;;;;;;;16.98;8.52;;;10.90;79.00;;;;;;5095031;28;20101;-77
2022/01/13 08:59:13;;;;;;;14.32;7.70;;;11.10;78.10;;;;;;5095539;28;20472;-74
2022/01/13 09:01:39;;;;;;;12.45;7.05;;;11.30;78.00;;;;;;5096105;28;20103;-76
2022/01/13 09:04:04;;;;;;;15.70;7.35;;;11.10;78.30;;;;;;5094596;28;20479;-76
2022/01/13 09:06:30;;;;;;;14.50;7.60;;;11.30;77.80;;;;;;5095920;28;20031;-76
2022/01/13 09:08:56;;;;;;;13.93;7.85;;;11.10;78.20;;;;;;5094399;28;20028;-76
2022/01/13 09:11:21;;;;;;;17.40;8.23;;;11.30;78.30;;;;;;5094771;28;20430;-76
2022/01/13 09:13:47;;;;;;;17.48;7.63;;;11.40;78.00;;;;;;5095763;28;20430;-76
2022/01/13 09:16:17;;;;;;;14.98;8.32;;;11.40;77.80;;;;;;5094417;28;20146;-76
2022/01/13 09:21:10;;;;;;;13.30;7.75;;;10.50;80.10;;;;;;5095470;28;20411;-76
2022/01/13 09:23:36;;;;;;;16.23;7.75;;;10.50;80.50;;;;;;5094589;28;20023;-79
2022/01/13 09:26:03;;;;;;;14.57;7.90;;;10.60;80.50;;;;;;5094201;28;20039;-77
2022/01/13 09:28:29;;;;;;;13.13;7.30;;;10.50;81.40;;;;;;5095042;28;20043;-76
2022/01/13 09:30:55;;;;;;;12.77;7.25;;;10.50;80.70;;;;;;5094864;28;20058;-78
2022/01/13 09:33:21;;;;;;;11.40;6.68;;;10.50;80.60;;;;;;5095481;28;20024;-78
2022/01/13 09:35:47;;;;;;;13.57;7.38;;;10.50;80.60;;;;;;5095452;28;20069;-77
2022/01/13 09:38:13;;;;;;;21.23;10.30;;;10.80;80.30;;;;;;5095357;28;20140;-78
2022/01/13 09:40:42;;;;;;;17.15;8.13;;;10.90;80.70;;;;;;5095148;28;20441;-76
2022/01/13 09:43:08;;;;;;;15.77;6.82;;;11.00;81.10;;;;;;5093531;28;20433;-76
2022/01/13 09:45:35;;;;;;;15.77;8.15;;;11.10;81.40;;;;;;5094589;28;20040;-75
2022/01/13 09:48:01;;;;;;;19.15;8.02;;;11.20;82.00;;;;;;5094333;28;20035;-77
2022/01/13 09:50:27;;;;;;;16.20;6.68;;;11.20;81.80;;;;;;5094652;28;20032;-78
2022/01/13 09:52:53;;;;;;;15.88;7.32;;;11.30;81.80;;;;;;5094248;28;20036;-77
2022/01/13 09:55:19;;;;;;;16.90;7.03;;;11.00;82.90;;;;;;5094123;28;20028;-77
2022/01/13 09:57:50;;;;;;;14.50;6.15;;;10.70;83.20;;;;;;5094437;28;20038;-77
2022/01/13 10:00:24;;;;;;;10.95;6.65;;;10.20;84.10;;;;;;5094408;28;20021;-76
2022/01/13 10:02:50;;;;;;;15.52;7.20;;;9.80;85.30;;;;;;5093773;28;20664;-73
2022/01/13 10:05:17;;;;;;;12.60;6.82;;;9.60;86.20;;;;;;5095415;28;20012;-78
2022/01/13 10:07:45;;;;;;;13.52;6.85;;;9.40;86.90;;;;;;5094378;28;20028;-77
2022/01/13 10:10:15;;;;;;;14.27;6.95;;;9.30;87.50;;;;;;5094325;28;20016;-76
2022/01/13 10:12:46;;;;;;;14.93;7.40;;;9.20;88.20;;;;;;5094327;28;20101;-76
2022/01/13 10:18:03;;;;;;;14.25;7.22;;;9.30;88.60;;;;;;5094356;28;20032;-75
2022/01/13 10:20:29;;;;;;;17.55;7.43;;;9.20;88.80;;;;;;5094207;28;20070;-76
2022/01/13 10:23:08;;;;;;;17.23;7.95;;;9.00;89.60;;;;;;5094798;28;20055;-76
2022/01/13 10:25:37;;;;;;;13.93;6.72;;;9.00;90.30;;;;;;5094220;28;20040;-77
2022/01/13 10:28:20;;;;;;;15.75;6.85;;;8.90;90.00;;;;;;5093139;28;20028;-77
2022/01/13 10:30:52;;;;;;;18.58;8.27;;;9.00;90.10;;;;;;5093140;28;20016;-76
2022/01/13 10:33:23;;;;;;;11.88;6.70;;;9.10;90.30;;;;;;5092998;28;20039;-76
2022/01/13 10:35:51;;;;;;;16.52;7.45;;;9.10;90.10;;;;;;5092263;28;20137;-78
2022/01/13 10:38:17;;;;;;;11.57;6.53;;;9.30;90.40;;;;;;5093245;28;20027;-78
2022/01/13 10:40:53;;;;;;;15.13;6.72;;;9.60;90.30;;;;;;5092899;28;20024;-79
2022/01/13 10:43:23;;;;;;;11.25;6.30;;;10.00;90.00;;;;;;5091768;28;20372;-76
2022/01/13 10:45:52;;;;;;;14.80;6.97;;;10.20;89.60;;;;;;5092336;28;20468;-77
2022/01/13 10:48:24;;;;;;;13.65;7.50;;;10.50;89.30;;;;;;5093009;28;20036;-77
2022/01/13 10:50:57;;;;;;;15.52;8.40;;;10.70;89.10;;;;;;5093309;28;20373;-76
2022/01/13 10:53:25;;;;;;;15.65;8.38;;;10.80;89.60;;;;;;5091687;28;20055;-77
2022/01/13 10:55:57;;;;;;;15.07;8.50;;;11.00;89.00;;;;;;5093302;28;20024;-78
2022/01/13 10:58:27;;;;;;;27.98;8.15;;;10.90;88.90;;;;;;5093166;28;20043;-78
2022/01/13 11:00:54;;;;;;;17.15;7.38;;;11.20;89.30;;;;;;5092729;28;20045;-77
2022/01/13 11:03:24;;;;;;;14.70;7.72;;;11.40;88.80;;;;;;5092956;28;20063;-79
2022/01/13 11:05:55;;;;;;;13.73;6.72;;;11.50;88.90;;;;;;5091932;28;20060;-76
2022/01/13 11:08:32;;;;;;;16.95;7.10;;;11.50;88.40;;;;;;5092088;28;20028;-78
2022/01/13 11:11:01;;;;;;;13.35;7.13;;;11.40;88.50;;;;;;5092344;28;20085;-78
2022/01/13 11:13:29;;;;;;;13.77;6.97;;;11.40;88.50;;;;;;5091048;28;20032;-75
2022/01/13 11:15:56;;;;;;;21.92;6.63;;;11.40;88.60;;;;;;5092532;28;20102;-79
2022/01/13 11:18:24;;;;;;;12.15;6.13;;;11.70;89.00;;;;;;5092694;28;20012;-77
2022/01/13 11:20:50;;;;;;;15.05;6.72;;;12.10;88.40;;;;;;5091944;28;20026;-77
2022/01/13 11:23:17;;;;;;;13.20;6.20;;;12.10;88.30;;;;;;5091401;28;20028;-78
2022/01/13 11:25:45;;;;;;;11.73;5.88;;;12.20;87.50;;;;;;5091753;28;20114;-77
2022/01/13 11:28:12;;;;;;;15.45;6.68;;;12.10;87.70;;;;;;5092106;28;20555;-76
2022/01/13 11:30:39;;;;;;;13.18;6.97;;;11.90;90.60;;;;;;5092272;28;20024;-77
2022/01/13 11:33:05;;;;;;;10.45;5.97;;;11.80;89.70;;;;;;5091545;28;20103;-77
2022/01/13 11:35:38;;;;;;;12.30;6.80;;;11.80;90.00;;;;;;5091810;28;20022;-77
2022/01/13 11:38:06;;;;;;;14.88;6.57;;;11.90;89.00;;;;;;5092302;28;20103;-77
2022/01/13 11:40:38;;;;;;;11.98;6.95;;;11.80;89.50;;;;;;5092027;28;20419;-77
2022/01/13 11:43:06;;;;;;;12.93;6.82;;;12.10;89.50;;;;;;5091835;28;20472;-77
2022/01/13 11:45:40;;;;;;;15.63;6.60;;;12.10;88.80;;;;;;5092015;28;20044;-78
2022/01/13 11:48:16;;;;;;;12.18;6.28;;;12.30;89.20;;;;;;5091330;28;20024;-78
2022/01/13 11:50:47;;;;;;;17.45;7.43;;;12.30;88.50;;;;;;5091110;28;20048;-77
2022/01/13 11:53:31;;;;;;;14.50;7.07;;;12.10;88.80;;;;;;5091664;28;20073;-77
2022/01/13 11:56:01;;;;;;;16.05;8.13;;;12.00;89.80;;;;;;5092116;28;20439;-76
2022/01/13 11:58:33;;;;;;;11.82;6.97;;;12.00;90.00;;;;;;5092135;28;20028;-78
2022/01/13 12:01:11;;;;;;;18.30;7.03;;;11.90;89.70;;;;;;5091878;28;20024;-78
2022/01/13 12:03:41;;;;;;;12.50;6.28;;;11.90;89.90;;;;;;5091719;28;20031;-77
2022/01/13 12:06:07;;;;;;;16.75;7.20;;;11.90;89.70;;;;;;5091247;28;20032;-77
2022/01/13 12:08:38;;;;;;;15.90;6.97;;;11.70;90.10;;;;;;5090768;28;20383;-78
2022/01/13 12:11:05;;;;;;;17.90;7.43;;;11.40;90.40;;;;;;5090558;28;20112;-79
2022/01/13 12:13:33;;;;;;;12.70;7.05;;;11.00;91.00;;;;;;5091785;28;20419;-78
2022/01/13 12:16:00;;;;;;;12.43;7.07;;;10.90;91.10;;;;;;5091802;28;20031;-80
2022/01/13 12:18:48;;;;;;;11.95;6.85;;;10.90;91.40;;;;;;5091148;28;20451;-80
2022/01/13 12:21:26;;;;;;;12.13;6.55;;;10.90;91.10;;;;;;5091353;28;20372;-78
2022/01/13 12:23:52;;;;;;;12.05;6.18;;;10.70;91.10;;;;;;5091736;28;20041;-80
2022/01/13 12:26:32;;;;;;;12.60;6.88;;;10.60;91.60;;;;;;5091801;28;20075;-79
2022/01/13 12:29:10;;;;;;;14.85;6.70;;;10.60;91.90;;;;;;5091815;28;20024;-80
2022/01/13 12:31:55;;;;;;;11.45;7.20;;;10.50;91.70;;;;;;5091229;28;20218;-79
2022/01/13 12:34:43;;;;;;;17.25;8.55;;;10.40;91.80;;;;;;5091420;28;20107;-80
2022/01/13 12:37:11;;;;;;;14.85;6.78;;;10.30;92.10;;;;;;5090062;28;20380;-81
2022/01/13 12:40:09;;;;;;;11.18;7.00;;;10.30;92.20;;;;;;5091204;28;20073;-78
2022/01/13 12:42:39;;;;;;;12.15;6.78;;;10.30;92.10;;;;;;5091056;28;20476;-80
2022/01/13 12:47:53;;;;;;;13.18;6.18;;;10.10;92.60;;;;;;5091358;28;20047;-77
2022/01/13 12:50:29;;;;;;;13.65;6.00;;;10.20;92.90;;;;;;5089754;28;20392;-80
2022/01/13 12:53:13;;;;;;;11.50;6.32;;;10.20;92.50;;;;;;5078414;28;20119;-77
2022/01/13 12:55:42;;;;;;;9.55;6.03;;;10.00;92.60;;;;;;5091540;28;20970;-80
2022/01/13 12:58:08;;;;;;;12.48;5.85;;;9.90;92.80;;;;;;5080008;28;20432;-77
2022/01/13 13:00:36;;;;;;;14.45;7.10;;;9.90;93.00;;;;;;5088256;28;20491;-81
2022/01/13 13:03:07;;;;;;;9.55;6.32;;;9.90;93.00;;;;;;5085273;28;20030;-80
2022/01/13 13:05:33;;;;;;;18.33;7.00;;;9.90;93.00;;;;;;5087113;28;20032;-78
2022/01/13 13:07:59;;;;;;;13.30;7.07;;;9.80;93.10;;;;;;5093189;28;20081;-78
2022/01/13 13:10:25;;;;;;;11.52;6.22;;;9.80;93.10;;;;;;5089913;28;20500;-78
2022/01/13 13:12:54;;;;;;;18.42;7.07;;;9.80;93.30;;;;;;5090092;28;20035;-78
2022/01/13 13:17:51;;;;;;;12.90;6.30;;;9.70;93.50;;;;;;5095249;28;20028;-80
2022/01/13 13:20:26;;;;;;;14.48;7.55;;;9.60;93.40;;;;;;5093024;28;20017;-79
2022/01/13 13:22:57;;;;;;;13.35;6.25;;;9.60;93.60;;;;;;5093673;28;20035;-80
2022/01/13 13:25:29;;;;;;;12.02;6.45;;;9.50;93.40;;;;;;5094883;28;20070;-79